Wetterdaten: Woche 16.06.14 - 22.06.14 (KW25)
Datum Zeit Temp. Aussen +5cm Feuchte Auss Luftdruck Regen Sonnenschein Regendauer UV Solar Windben
16.06.2014 00:00 14,6 C 13,2 C 82 % 1023,4 hPa 0,0 l/m 0,00 h 0,00 h 0,0 UV-I 0 W/m 16,6 km/h (3 Bft)
16.06.2014 01:00 13,6 C 12,4 C 84 % 1023,5 hPa 0,0 l/m 0,00 h 0,00 h 0,0 UV-I 0 W/m 14,0 km/h (3 Bft)
16.06.2014 02:00 12,6 C 11,4 C 87 % 1023,5 hPa 0,0 l/m 0,00 h 0,00 h 0,0 UV-I 0 W/m 10,7 km/h (2 Bft)
16.06.2014 03:00 11,7 C 10,6 C 90 % 1023,5 hPa 0,0 l/m 0,00 h 0,00 h 0,0 UV-I 0 W/m 10,8 km/h (2 Bft)
16.06.2014 04:00 10,7 C 9,7 C 91 % 1023,3 hPa 0,0 l/m 0,00 h 0,00 h 0,0 UV-I 0 W/m 7,1 km/h (2 Bft)
16.06.2014 05:00 10,0 C 9,0 C 92 % 1023,3 hPa 0,0 l/m 0,47 h 0,00 h 0,0 UV-I 20 W/m 3,4 km/h (1 Bft)
16.06.2014 06:00 10,2 C 9,4 C 92 % 1023,4 hPa 0,0 l/m 0,77 h 0,00 h 0,0 UV-I 91 W/m 7,3 km/h (2 Bft)
16.06.2014 07:00 11,6 C 11,4 C 87 % 1023,4 hPa 0,0 l/m 0,00 h 0,00 h 0,0 UV-I 114 W/m 9,0 km/h (2 Bft)
16.06.2014 08:00 12,9 C 12,8 C 81 % 1023,5 hPa 0,0 l/m 0,43 h 0,00 h 0,0 UV-I 269 W/m 10,6 km/h (2 Bft)
16.06.2014 09:00 14,2 C 14,5 C 73 % 1023,3 hPa 0,0 l/m 0,97 h 0,00 h 0,5 UV-I 407 W/m 10,2 km/h (2 Bft)
16.06.2014 10:00 15,2 C 16,5 C 72 % 1023,1 hPa 0,0 l/m 1,00 h 0,00 h 1,0 UV-I 549 W/m 14,7 km/h (3 Bft)
16.06.2014 11:00 16,3 C 18,2 C 73 % 1022,8 hPa 0,0 l/m 1,00 h 0,00 h 1,3 UV-I 563 W/m 12,1 km/h (2 Bft)
16.06.2014 12:00 16,6 C 18,2 C 72 % 1022,7 hPa 0,0 l/m 0,50 h 0,00 h 0,9 UV-I 422 W/m 13,1 km/h (3 Bft)
16.06.2014 13:00 17,4 C 19,1 C 73 % 1022,5 hPa 0,0 l/m 0,60 h 0,00 h 1,3 UV-I 452 W/m 13,5 km/h (3 Bft)
16.06.2014 14:00 16,6 C 16,4 C 77 % 1022,0 hPa 0,0 l/m 0,00 h 0,03 h 0,0 UV-I 144 W/m 15,1 km/h (3 Bft)
16.06.2014 15:00 15,1 C 14,5 C 91 % 1021,8 hPa 0,4 l/m 0,07 h 0,23 h 1,0 UV-I 228 W/m 6,8 km/h (2 Bft)
16.06.2014 16:00 16,1 C 15,1 C 89 % 1021,5 hPa 0,0 l/m 0,13 h 0,00 h 0,9 UV-I 238 W/m 9,1 km/h (2 Bft)
16.06.2014 17:00 17,3 C 16,6 C 79 % 1021,2 hPa 0,0 l/m 0,77 h 0,00 h 0,6 UV-I 418 W/m 22,0 km/h (4 Bft)
16.06.2014 18:00 17,4 C 17,1 C 74 % 1021,0 hPa 0,0 l/m 0,33 h 0,00 h 0,0 UV-I 216 W/m 22,1 km/h (4 Bft)
16.06.2014 19:00 16,9 C 16,2 C 75 % 1021,0 hPa 0,0 l/m 0,00 h 0,00 h 0,0 UV-I 85 W/m 17,4 km/h (3 Bft)
16.06.2014 20:00 16,6 C 15,7 C 77 % 1020,9 hPa 0,0 l/m 0,17 h 0,00 h 0,0 UV-I 71 W/m 13,3 km/h (3 Bft)
16.06.2014 21:00 16,1 C 14,9 C 79 % 1020,9 hPa 0,0 l/m 0,37 h 0,00 h 0,0 UV-I 24 W/m 12,0 km/h (2 Bft)
16.06.2014 22:00 15,4 C 14,0 C 79 % 1021,1 hPa 0,0 l/m 0,00 h 0,00 h 0,0 UV-I 0 W/m 13,3 km/h (3 Bft)
16.06.2014 23:00 15,2 C 13,9 C 79 % 1021,2 hPa 0,0 l/m 0,00 h 0,00 h 0,0 UV-I 0 W/m 12,6 km/h (3 Bft)
17.06.2014 00:00 14,5 C 13,2 C 82 % 1021,2 hPa 0,0 l/m 0,00 h 0,00 h 0,0 UV-I 0 W/m 12,9 km/h (3 Bft)
17.06.2014 01:00 13,4 C 12,3 C 85 % 1021,5 hPa 0,0 l/m 0,00 h 0,00 h 0,0 UV-I 0 W/m 12,8 km/h (3 Bft)
17.06.2014 02:00 11,8 C 10,4 C 87 % 1021,7 hPa 0,0 l/m 0,00 h 0,00 h 0,0 UV-I 0 W/m 6,4 km/h (2 Bft)
17.06.2014 03:00 11,1 C 9,8 C 89 % 1021,6 hPa 0,0 l/m 0,00 h 0,00 h 0,0 UV-I 0 W/m 0,8 km/h (0 Bft)
17.06.2014 04:00 10,5 C 9,0 C 90 % 1021,4 hPa 0,0 l/m 0,00 h 0,00 h 0,0 UV-I 0 W/m 0,1 km/h (0 Bft)
17.06.2014 05:00 11,0 C 10,1 C 91 % 1021,4 hPa 0,0 l/m 0,00 h 0,00 h 0,0 UV-I 8 W/m 0,2 km/h (0 Bft)
17.06.2014 06:00 12,0 C 11,5 C 90 % 1021,5 hPa 0,0 l/m 0,00 h 0,00 h 0,0 UV-I 36 W/m 0,4 km/h (0 Bft)
17.06.2014 07:00 13,0 C 12,7 C 89 % 1021,9 hPa 0,0 l/m 0,00 h 0,00 h 0,0 UV-I 104 W/m 6,2 km/h (2 Bft)
17.06.2014 08:00 14,0 C 14,0 C 87 % 1022,2 hPa 0,0 l/m 0,13 h 0,00 h 0,0 UV-I 183 W/m 9,2 km/h (2 Bft)
17.06.2014 09:00 15,4 C 15,5 C 85 % 1022,4 hPa 0,0 l/m 0,47 h 0,00 h 0,8 UV-I 351 W/m 11,8 km/h (2 Bft)
17.06.2014 10:00 16,2 C 16,7 C 83 % 1022,3 hPa 0,0 l/m 0,17 h 0,00 h 0,7 UV-I 297 W/m 14,3 km/h (3 Bft)
17.06.2014 11:00 17,1 C 18,3 C 81 % 1022,2 hPa 0,0 l/m 0,53 h 0,00 h 1,4 UV-I 430 W/m 12,6 km/h (3 Bft)
17.06.2014 12:00 17,6 C 18,5 C 79 % 1022,1 hPa 0,0 l/m 0,03 h 0,00 h 1,1 UV-I 316 W/m 13,6 km/h (3 Bft)
17.06.2014 13:00 17,8 C 17,8 C 80 % 1022,0 hPa 0,0 l/m 0,00 h 0,00 h 0,7 UV-I 204 W/m 14,1 km/h (3 Bft)
17.06.2014 14:00 17,9 C 18,2 C 83 % 1021,9 hPa 0,0 l/m 0,00 h 0,00 h 0,9 UV-I 280 W/m 15,6 km/h (3 Bft)
17.06.2014 15:00 19,4 C 21,6 C 79 % 1021,3 hPa 0,0 l/m 0,70 h 0,00 h 1,7 UV-I 520 W/m 16,5 km/h (3 Bft)
17.06.2014 16:00 20,2 C 21,4 C 75 % 1020,9 hPa 0,0 l/m 0,53 h 0,00 h 1,0 UV-I 386 W/m 15,5 km/h (3 Bft)
17.06.2014 17:00 20,2 C 20,4 C 74 % 1020,5 hPa 0,0 l/m 0,17 h 0,00 h 0,0 UV-I 254 W/m 14,4 km/h (3 Bft)
17.06.2014 18:00 20,2 C 19,9 C 75 % 1020,2 hPa 0,0 l/m 0,00 h 0,00 h 0,0 UV-I 157 W/m 9,2 km/h (2 Bft)
17.06.2014 19:00 19,5 C 18,6 C 76 % 1020,2 hPa 0,0 l/m 0,00 h 0,07 h 0,0 UV-I 69 W/m 1,5 km/h (1 Bft)
17.06.2014 20:00 19,6 C 19,1 C 76 % 1020,2 hPa 0,0 l/m 0,90 h 0,00 h 0,0 UV-I 133 W/m 5,3 km/h (1 Bft)
17.06.2014 21:00 19,0 C 17,7 C 76 % 1020,5 hPa 0,0 l/m 0,37 h 0,00 h 0,0 UV-I 22 W/m 20,8 km/h (4 Bft)
17.06.2014 22:00 17,4 C 16,1 C 79 % 1021,1 hPa 0,0 l/m 0,00 h 0,00 h 0,0 UV-I 0 W/m 18,0 km/h (3 Bft)
17.06.2014 23:00 16,2 C 14,8 C 82 % 1021,5 hPa 0,0 l/m 0,00 h 0,00 h 0,0 UV-I 0 W/m 12,2 km/h (2 Bft)
18.06.2014 00:00 15,2 C 13,8 C 84 % 1021,8 hPa 0,0 l/m 0,00 h 0,00 h 0,0 UV-I 0 W/m 15,1 km/h (3 Bft)
18.06.2014 01:00 14,0 C 12,7 C 86 % 1021,9 hPa 0,0 l/m 0,00 h 0,00 h 0,0 UV-I 0 W/m 12,2 km/h (2 Bft)
18.06.2014 02:00 13,0 C 11,9 C 89 % 1022,0 hPa 0,0 l/m 0,00 h 0,00 h 0,0 UV-I 0 W/m 14,2 km/h (3 Bft)
18.06.2014 03:00 12,1 C 10,9 C 91 % 1022,0 hPa 0,0 l/m 0,00 h 0,00 h 0,0 UV-I 0 W/m 12,6 km/h (3 Bft)
18.06.2014 04:00 11,3 C 10,3 C 93 % 1022,1 hPa 0,0 l/m 0,00 h 0,00 h 0,0 UV-I 0 W/m 6,5 km/h (2 Bft)
18.06.2014 05:00 10,6 C 9,4 C 95 % 1022,5 hPa 0,0 l/m 0,47 h 0,00 h 0,0 UV-I 21 W/m 1,4 km/h (1 Bft)
18.06.2014 06:00 10,6 C 9,7 C 95 % 1022,6 hPa 0,0 l/m 0,97 h 0,00 h 0,0 UV-I 130 W/m 7,0 km/h (2 Bft)
18.06.2014 07:00 11,7 C 10,9 C 93 % 1022,8 hPa 0,0 l/m 1,00 h 0,00 h 0,0 UV-I 301 W/m 10,1 km/h (2 Bft)
18.06.2014 08:00 13,5 C 12,5 C 87 % 1023,1 hPa 0,0 l/m 1,00 h 0,00 h 0,6 UV-I 481 W/m 13,5 km/h (3 Bft)
18.06.2014 09:00 15,7 C 14,8 C 80 % 1023,1 hPa 0,0 l/m 0,93 h 0,00 h 1,2 UV-I 631 W/m 14,8 km/h (3 Bft)
18.06.2014 10:00 17,4 C 19,2 C 73 % 1023,1 hPa 0,0 l/m 0,87 h 0,00 h 2,2 UV-I 808 W/m 16,0 km/h (3 Bft)
18.06.2014 11:00 18,0 C 22,0 C 69 % 1023,0 hPa 0,0 l/m 0,87 h 0,00 h 3,2 UV-I 886 W/m 16,8 km/h (3 Bft)
18.06.2014 12:00 18,9 C 22,8 C 67 % 1022,9 hPa 0,0 l/m 0,63 h 0,00 h 3,3 UV-I 725 W/m 16,5 km/h (3 Bft)
18.06.2014 13:00 18,7 C 20,4 C 69 % 1022,7 hPa 0,0 l/m 0,83 h 0,00 h 2,7 UV-I 499 W/m 18,5 km/h (3 Bft)
18.06.2014 14:00 19,3 C 22,0 C 69 % 1022,6 hPa 0,0 l/m 1,00 h 0,00 h 3,0 UV-I 728 W/m 20,1 km/h (4 Bft)
18.06.2014 15:00 19,3 C 20,7 C 68 % 1022,4 hPa 0,0 l/m 1,00 h 0,00 h 1,8 UV-I 495 W/m 18,0 km/h (3 Bft)
18.06.2014 16:00 19,2 C 19,8 C 70 % 1022,0 hPa 0,0 l/m 0,97 h 0,00 h 1,7 UV-I 571 W/m 16,3 km/h (3 Bft)
18.06.2014 17:00 20,1 C 19,7 C 68 % 1021,4 hPa 0,0 l/m 0,83 h 0,00 h 0,6 UV-I 554 W/m 15,3 km/h (3 Bft)
18.06.2014 18:00 19,9 C 19,0 C 70 % 1020,9 hPa 0,0 l/m 0,63 h 0,00 h 0,0 UV-I 368 W/m 15,3 km/h (3 Bft)
18.06.2014 19:00 19,5 C 18,4 C 70 % 1020,7 hPa 0,0 l/m 0,67 h 0,00 h 0,0 UV-I 208 W/m 14,6 km/h (3 Bft)
18.06.2014 20:00 19,0 C 17,7 C 73 % 1020,6 hPa 0,0 l/m 0,37 h 0,00 h 0,0 UV-I 90 W/m 11,7 km/h (2 Bft)
18.06.2014 21:00 17,8 C 16,4 C 77 % 1020,5 hPa 0,0 l/m 0,00 h 0,00 h 0,0 UV-I 12 W/m 8,2 km/h (2 Bft)
18.06.2014 22:00 17,0 C 15,5 C 75 % 1021,0 hPa 0,0 l/m 0,00 h 0,00 h 0,0 UV-I 6 W/m 13,1 km/h (3 Bft)
18.06.2014 23:00 15,3 C 13,9 C 80 % 1021,1 hPa 0,0 l/m 0,00 h 0,00 h 0,0 UV-I 0 W/m 8,5 km/h (2 Bft)
19.06.2014 00:00 13,9 C 12,4 C 85 % 1021,2 hPa 0,0 l/m 0,00 h 0,00 h 0,0 UV-I 0 W/m 1,4 km/h (1 Bft)
19.06.2014 01:00 12,9 C 11,3 C 89 % 1021,2 hPa 0,0 l/m 0,00 h 0,00 h 0,0 UV-I 0 W/m 0,3 km/h (0 Bft)
19.06.2014 02:00 11,8 C 10,2 C 92 % 1021,2 hPa 0,0 l/m 0,00 h 0,00 h 0,0 UV-I 0 W/m 0,0 km/h (0 Bft)
19.06.2014 03:00 11,2 C 9,6 C 95 % 1021,0 hPa 0,0 l/m 0,00 h 0,00 h 0,0 UV-I 0 W/m 0,0 km/h (0 Bft)
19.06.2014 04:00 10,7 C 9,3 C 96 % 1020,9 hPa 0,0 l/m 0,00 h 0,00 h 0,0 UV-I 0 W/m 0,1 km/h (0 Bft)
19.06.2014 05:00 10,9 C 10,1 C 96 % 1020,6 hPa 0,0 l/m 0,00 h 0,00 h 0,0 UV-I 11 W/m 0,1 km/h (0 Bft)
19.06.2014 06:00 11,9 C 11,5 C 96 % 1020,5 hPa 0,0 l/m 0,00 h 0,00 h 0,0 UV-I 33 W/m 0,1 km/h (0 Bft)
19.06.2014 07:00 12,9 C 12,5 C 94 % 1020,5 hPa 0,0 l/m 0,00 h 0,00 h 0,0 UV-I 62 W/m 0,7 km/h (0 Bft)
19.06.2014 08:00 13,9 C 13,6 C 91 % 1020,6 hPa 0,0 l/m 0,00 h 0,00 h 0,0 UV-I 119 W/m 8,0 km/h (2 Bft)
19.06.2014 09:00 15,0 C 15,0 C 85 % 1020,8 hPa 0,0 l/m 0,00 h 0,00 h 0,5 UV-I 220 W/m 9,6 km/h (2 Bft)
19.06.2014 10:00 15,8 C 15,9 C 77 % 1020,5 hPa 0,0 l/m 0,00 h 0,00 h 0,7 UV-I 262 W/m 11,9 km/h (2 Bft)
19.06.2014 11:00 16,2 C 16,5 C 75 % 1020,3 hPa 0,0 l/m 0,07 h 0,00 h 0,9 UV-I 285 W/m 14,3 km/h (3 Bft)
19.06.2014 12:00 16,5 C 16,8 C 73 % 1020,2 hPa 0,0 l/m 0,00 h 0,00 h 1,4 UV-I 337 W/m 14,8 km/h (3 Bft)
19.06.2014 13:00 17,8 C 19,1 C 69 % 1019,9 hPa 0,0 l/m 0,70 h 0,00 h 2,6 UV-I 515 W/m 14,1 km/h (3 Bft)
19.06.2014 14:00 17,8 C 18,4 C 70 % 1019,7 hPa 0,0 l/m 0,30 h 0,00 h 1,5 UV-I 347 W/m 14,3 km/h (3 Bft)
19.06.2014 15:00 17,2 C 16,9 C 74 % 1019,6 hPa 0,0 l/m 0,07 h 0,00 h 0,8 UV-I 213 W/m 15,5 km/h (3 Bft)
19.06.2014 16:00 16,8 C 16,4 C 77 % 1019,4 hPa 0,2 l/m 0,03 h 0,10 h 1,0 UV-I 162 W/m 17,5 km/h (3 Bft)
19.06.2014 17:00 15,6 C 13,6 C 87 % 1019,1 hPa 0,2 l/m 0,00 h 0,53 h 0,0 UV-I 152 W/m 14,0 km/h (3 Bft)
19.06.2014 18:00 15,4 C 13,5 C 89 % 1019,0 hPa 0,0 l/m 0,00 h 0,20 h 0,0 UV-I 105 W/m 14,7 km/h (3 Bft)
19.06.2014 19:00 15,3 C 13,4 C 88 % 1018,9 hPa 0,0 l/m 0,00 h 0,00 h 0,0 UV-I 68 W/m 14,8 km/h (3 Bft)
19.06.2014 20:00 15,1 C 13,2 C 88 % 1018,8 hPa 0,0 l/m 0,00 h 0,13 h 0,0 UV-I 21 W/m 15,3 km/h (3 Bft)
19.06.2014 21:00 13,5 C 12,1 C 94 % 1019,0 hPa 0,0 l/m 0,00 h 0,10 h 0,0 UV-I 6 W/m 8,7 km/h (2 Bft)
19.06.2014 22:00 13,4 C 12,2 C 94 % 1019,0 hPa 0,0 l/m 0,00 h 0,00 h 0,0 UV-I 0 W/m 7,1 km/h (2 Bft)
19.06.2014 23:00 12,7 C 11,2 C 95 % 1019,1 hPa 0,0 l/m 0,00 h 0,00 h 0,0 UV-I 0 W/m 7,6 km/h (2 Bft)
20.06.2014 00:00 11,9 C 10,5 C 96 % 1019,1 hPa 0,0 l/m 0,00 h 0,00 h 0,0 UV-I 0 W/m 3,5 km/h (1 Bft)
20.06.2014 01:00 11,7 C 10,5 C 97 % 1018,9 hPa 0,0 l/m 0,00 h 0,00 h 0,0 UV-I 0 W/m 5,8 km/h (2 Bft)
20.06.2014 02:00 12,1 C 11,1 C 96 % 1018,6 hPa 0,0 l/m 0,00 h 0,00 h 0,0 UV-I 0 W/m 7,8 km/h (2 Bft)
20.06.2014 03:00 12,2 C 11,4 C 96 % 1018,4 hPa 0,0 l/m 0,00 h 0,00 h 0,0 UV-I 0 W/m 9,3 km/h (2 Bft)
20.06.2014 04:00 12,3 C 11,5 C 94 % 1018,4 hPa 0,0 l/m 0,00 h 0,00 h 0,0 UV-I 0 W/m 11,9 km/h (2 Bft)
20.06.2014 05:00 12,2 C 11,0 C 93 % 1018,4 hPa 0,4 l/m 0,00 h 0,17 h 0,0 UV-I 9 W/m 11,9 km/h (2 Bft)
20.06.2014 06:00 11,9 C 10,7 C 96 % 1018,4 hPa 1,4 l/m 0,00 h 0,53 h 0,0 UV-I 17 W/m 2,8 km/h (1 Bft)
20.06.2014 07:00 12,2 C 11,6 C 98 % 1018,5 hPa 0,0 l/m 0,00 h 0,00 h 0,0 UV-I 82 W/m 0,6 km/h (0 Bft)
20.06.2014 08:00 13,1 C 12,5 C 97 % 1018,8 hPa 0,0 l/m 0,00 h 0,00 h 0,0 UV-I 141 W/m 9,6 km/h (2 Bft)
20.06.2014 09:00 13,8 C 13,0 C 90 % 1018,9 hPa 0,0 l/m 0,23 h 0,00 h 0,5 UV-I 259 W/m 14,1 km/h (3 Bft)
20.06.2014 10:00 14,8 C 14,2 C 84 % 1019,0 hPa 0,0 l/m 0,60 h 0,00 h 1,0 UV-I 369 W/m 18,6 km/h (3 Bft)
20.06.2014 11:00 14,0 C 13,3 C 80 % 1019,4 hPa 0,0 l/m 0,00 h 0,07 h 0,9 UV-I 240 W/m 19,9 km/h (4 Bft)
20.06.2014 12:00 15,8 C 17,2 C 76 % 1019,4 hPa 0,0 l/m 0,80 h 0,00 h 3,1 UV-I 718 W/m 14,7 km/h (3 Bft)
20.06.2014 13:00 17,5 C 18,5 C 69 % 1019,2 hPa 0,0 l/m 1,00 h 0,00 h 2,7 UV-I 566 W/m 20,3 km/h (4 Bft)
20.06.2014 14:00 17,1 C 17,4 C 67 % 1019,3 hPa 0,0 l/m 0,47 h 0,00 h 1,7 UV-I 427 W/m 19,6 km/h (3 Bft)
20.06.2014 15:00 17,2 C 17,4 C 67 % 1019,2 hPa 0,0 l/m 0,30 h 0,00 h 1,4 UV-I 345 W/m 18,2 km/h (3 Bft)
20.06.2014 16:00 18,3 C 18,6 C 64 % 1018,9 hPa 0,0 l/m 0,77 h 0,00 h 1,8 UV-I 605 W/m 13,7 km/h (3 Bft)
20.06.2014 17:00 17,8 C 17,3 C 63 % 1019,0 hPa 0,0 l/m 0,13 h 0,00 h 0,7 UV-I 219 W/m 19,7 km/h (3 Bft)
20.06.2014 18:00 16,8 C 15,9 C 70 % 1019,1 hPa 0,0 l/m 0,00 h 0,00 h 0,0 UV-I 124 W/m 19,4 km/h (3 Bft)
20.06.2014 19:00 16,3 C 15,4 C 72 % 1019,2 hPa 0,0 l/m 0,00 h 0,00 h 0,0 UV-I 93 W/m 18,9 km/h (3 Bft)
20.06.2014 20:00 15,5 C 14,3 C 75 % 1019,2 hPa 0,0 l/m 0,00 h 0,00 h 0,0 UV-I 44 W/m 15,3 km/h (3 Bft)
20.06.2014 21:00 14,8 C 13,6 C 77 % 1019,2 hPa 0,0 l/m 0,00 h 0,00 h 0,0 UV-I 13 W/m 11,9 km/h (2 Bft)
20.06.2014 22:00 14,3 C 13,2 C 80 % 1019,5 hPa 0,0 l/m 0,00 h 0,00 h 0,0 UV-I 0 W/m 11,4 km/h (2 Bft)
20.06.2014 23:00 13,8 C 12,4 C 84 % 1019,4 hPa 0,0 l/m 0,00 h 0,00 h 0,0 UV-I 0 W/m 2,9 km/h (1 Bft)
21.06.2014 00:00 12,4 C 10,8 C 89 % 1019,4 hPa 0,0 l/m 0,00 h 0,00 h 0,0 UV-I 0 W/m 0,6 km/h (0 Bft)
21.06.2014 01:00 12,4 C 11,1 C 90 % 1019,3 hPa 0,0 l/m 0,00 h 0,00 h 0,0 UV-I 0 W/m 0,1 km/h (0 Bft)
21.06.2014 02:00 12,2 C 10,8 C 90 % 1019,2 hPa 0,0 l/m 0,00 h 0,00 h 0,0 UV-I 0 W/m 0,4 km/h (0 Bft)
21.06.2014 03:00 11,1 C 9,5 C 92 % 1019,2 hPa 0,0 l/m 0,00 h 0,00 h 0,0 UV-I 0 W/m 0,7 km/h (0 Bft)
21.06.2014 04:00 10,2 C 8,7 C 94 % 1019,3 hPa 0,0 l/m 0,00 h 0,00 h 0,0 UV-I 0 W/m 0,9 km/h (0 Bft)
21.06.2014 05:00 9,6 C 8,3 C 96 % 1019,4 hPa 0,0 l/m 0,07 h 0,00 h 0,0 UV-I 14 W/m 0,3 km/h (0 Bft)
21.06.2014 06:00 9,7 C 8,6 C 96 % 1019,3 hPa 0,0 l/m 0,90 h 0,00 h 0,0 UV-I 111 W/m 0,9 km/h (0 Bft)
21.06.2014 07:00 11,1 C 10,4 C 96 % 1019,6 hPa 0,0 l/m 0,93 h 0,00 h 0,0 UV-I 235 W/m 2,7 km/h (1 Bft)
21.06.2014 08:00 13,3 C 12,5 C 90 % 1019,6 hPa 0,0 l/m 0,70 h 0,00 h 0,6 UV-I 364 W/m 6,9 km/h (2 Bft)
21.06.2014 09:00 14,7 C 14,1 C 83 % 1019,5 hPa 0,0 l/m 0,40 h 0,00 h 0,7 UV-I 366 W/m 11,2 km/h (2 Bft)
21.06.2014 10:00 16,0 C 16,6 C 77 % 1019,5 hPa 0,0 l/m 0,60 h 0,00 h 1,7 UV-I 502 W/m 9,6 km/h (2 Bft)
21.06.2014 11:00 17,4 C 20,3 C 71 % 1019,4 hPa 0,0 l/m 0,60 h 0,00 h 2,8 UV-I 624 W/m 8,2 km/h (2 Bft)
21.06.2014 12:00 18,9 C 23,3 C 64 % 1019,1 hPa 0,0 l/m 0,73 h 0,00 h 3,8 UV-I 866 W/m 9,8 km/h (2 Bft)
21.06.2014 13:00 19,7 C 21,6 C 61 % 1018,8 hPa 0,0 l/m 0,50 h 0,00 h 3,4 UV-I 738 W/m 11,8 km/h (2 Bft)
21.06.2014 14:00 20,5 C 23,6 C 59 % 1018,6 hPa 0,0 l/m 0,73 h 0,00 h 3,5 UV-I 716 W/m 12,3 km/h (3 Bft)
21.06.2014 15:00 19,9 C 20,9 C 60 % 1018,5 hPa 0,0 l/m 0,80 h 0,00 h 2,0 UV-I 458 W/m 10,4 km/h (2 Bft)
21.06.2014 16:00 20,1 C 20,8 C 60 % 1018,2 hPa 0,0 l/m 0,80 h 0,00 h 1,6 UV-I 406 W/m 9,9 km/h (2 Bft)
21.06.2014 17:00 20,2 C 20,3 C 61 % 1018,0 hPa 0,0 l/m 0,53 h 0,00 h 0,7 UV-I 288 W/m 11,9 km/h (2 Bft)
21.06.2014 18:00 19,8 C 18,9 C 63 % 1017,9 hPa 0,0 l/m 0,83 h 0,00 h 0,5 UV-I 349 W/m 12,5 km/h (3 Bft)
21.06.2014 19:00 19,6 C 18,0 C 64 % 1017,6 hPa 0,0 l/m 0,93 h 0,00 h 0,0 UV-I 225 W/m 8,9 km/h (2 Bft)
21.06.2014 20:00 18,8 C 16,9 C 67 % 1017,5 hPa 0,0 l/m 0,37 h 0,00 h 0,0 UV-I 86 W/m 4,3 km/h (1 Bft)
21.06.2014 21:00 17,3 C 15,0 C 74 % 1017,6 hPa 0,0 l/m 0,17 h 0,00 h 0,0 UV-I 19 W/m 0,1 km/h (0 Bft)
21.06.2014 22:00 15,7 C 13,2 C 81 % 1017,7 hPa 0,0 l/m 0,00 h 0,00 h 0,0 UV-I 0 W/m 1,3 km/h (1 Bft)
21.06.2014 23:00 15,9 C 13,8 C 78 % 1017,5 hPa 0,0 l/m 0,00 h 0,00 h 0,0 UV-I 0 W/m 3,8 km/h (1 Bft)
22.06.2014 00:00 14,7 C 12,5 C 83 % 1017,6 hPa 0,0 l/m 0,00 h 0,00 h 0,0 UV-I 0 W/m 0,0 km/h (0 Bft)
22.06.2014 01:00 13,8 C 11,8 C 87 % 1017,6 hPa 0,0 l/m 0,00 h 0,00 h 0,0 UV-I 0 W/m 0,0 km/h (0 Bft)
22.06.2014 02:00 13,9 C 12,1 C 90 % 1017,7 hPa 0,0 l/m 0,00 h 0,00 h 0,0 UV-I 0 W/m 2,4 km/h (1 Bft)
22.06.2014 03:00 13,0 C 11,2 C 93 % 1018,0 hPa 0,0 l/m 0,00 h 0,00 h 0,0 UV-I 0 W/m 0,1 km/h (0 Bft)
22.06.2014 04:00 12,4 C 10,7 C 95 % 1018,3 hPa 0,0 l/m 0,00 h 0,00 h 0,0 UV-I 0 W/m 0,0 km/h (0 Bft)
22.06.2014 05:00 12,4 C 11,4 C 96 % 1018,5 hPa 0,0 l/m 0,00 h 0,00 h 0,0 UV-I 11 W/m 0,3 km/h (0 Bft)
22.06.2014 06:00 13,1 C 12,2 C 93 % 1019,0 hPa 0,0 l/m 0,57 h 0,00 h 0,0 UV-I 107 W/m 7,5 km/h (2 Bft)
22.06.2014 07:00 13,7 C 12,5 C 89 % 1019,5 hPa 0,0 l/m 1,00 h 0,00 h 0,0 UV-I 323 W/m 13,1 km/h (3 Bft)
22.06.2014 08:00 15,0 C 13,5 C 82 % 1019,9 hPa 0,0 l/m 1,00 h 0,00 h 0,7 UV-I 498 W/m 13,9 km/h (3 Bft)
22.06.2014 09:00 16,9 C 15,7 C 75 % 1020,3 hPa 0,0 l/m 0,97 h 0,00 h 1,6 UV-I 682 W/m 11,2 km/h (2 Bft)
22.06.2014 10:00 18,0 C 19,3 C 70 % 1020,5 hPa 0,0 l/m 0,83 h 0,00 h 2,4 UV-I 837 W/m 11,3 km/h (2 Bft)
22.06.2014 11:00 18,9 C 22,4 C 67 % 1020,6 hPa 0,0 l/m 0,57 h 0,00 h 3,1 UV-I 681 W/m 12,1 km/h (2 Bft)
22.06.2014 12:00 20,4 C 25,0 C 63 % 1020,5 hPa 0,0 l/m 0,73 h 0,00 h 3,8 UV-I 899 W/m 14,4 km/h (3 Bft)
22.06.2014 13:00 21,0 C 22,9 C 57 % 1020,3 hPa 0,0 l/m 0,83 h 0,00 h 4,1 UV-I 844 W/m 16,0 km/h (3 Bft)
22.06.2014 14:00 20,1 C 20,6 C 58 % 1020,4 hPa 0,0 l/m 0,13 h 0,00 h 1,9 UV-I 372 W/m 14,8 km/h (3 Bft)
22.06.2014 15:00 20,6 C 21,4 C 58 % 1020,4 hPa 0,0 l/m 0,40 h 0,00 h 1,8 UV-I 376 W/m 12,7 km/h (3 Bft)
22.06.2014 16:00 20,6 C 20,4 C 58 % 1020,5 hPa 0,0 l/m 0,23 h 0,00 h 1,4 UV-I 377 W/m 14,7 km/h (3 Bft)
22.06.2014 17:00 20,4 C 19,7 C 60 % 1020,6 hPa 0,0 l/m 0,27 h 0,00 h 0,9 UV-I 280 W/m 15,1 km/h (3 Bft)
22.06.2014 18:00 19,8 C 18,9 C 62 % 1020,5 hPa 0,0 l/m 0,03 h 0,00 h 0,0 UV-I 144 W/m 10,5 km/h (2 Bft)
22.06.2014 19:00 19,7 C 18,5 C 60 % 1020,7 hPa 0,0 l/m 0,20 h 0,00 h 0,0 UV-I 121 W/m 16,9 km/h (3 Bft)
22.06.2014 20:00 18,6 C 17,4 C 65 % 1021,1 hPa 0,0 l/m 0,65 h 0,00 h 0,0 UV-I 90 W/m 14,9 km/h (3 Bft)
22.06.2014 21:00 17,5 C 16,0 C 68 % 1021,4 hPa 0,0 l/m 0,23 h 0,00 h 0,0 UV-I 23 W/m 12,6 km/h (3 Bft)
22.06.2014 22:00 15,7 C 14,2 C 74 % 1022,0 hPa 0,0 l/m 0,00 h 0,00 h 0,0 UV-I 0 W/m 8,9 km/h (2 Bft)
22.06.2014 23:00 14,3 C 12,8 C 77 % 1022,5 hPa 0,0 l/m 0,00 h 0,00 h 0,0 UV-I 0 W/m 3,2 km/h (1 Bft)
Min-Datum _ 21.06.14 21.06.14 22.06.14 21.06.14 - - - - - 16.06.14
_ Min-Zeit 05:26 05:30 13:24 19:58 - - - - - 02:44
Minimum _ 9,5 C 7,8 C 52 % 1017,4 hPa - - - - - 0,0 km/h (0 Bft)
Max-Datum _ 22.06.14 21.06.14 20.06.14 16.06.14 20.06.14 16.06.14 16.06.14 19.06.14 18.06.14 20.06.14
_ Max-Zeit 13:38 14:24 07:24 00:36 06:38 05:32 14:58 13:24 14:40 11:02
Maximum _ 22,3 C 28,9 C 98 % 1023,6 hPa 1,4 l/m 0,03 h 0,03 h 5,6 UV-I 1393 W/m 35,6 km/h
N-NO (5 Bft)
Durchschnitt _ 15,4 C 15,0 C 80 % 1020,5 hPa #2,6 l/m #49:19 h #2:10 h 1,6 UV-I 298 W/m 10,3 km/h (2 Bft)
© 2014 W. Hausmann